sensor_id;sensor_type;location;lat;lon;timestamp;pressure;altitude;pressure_sealevel;temperature;humidity
38400;BME280;24180;42.676;23.320;2023-06-14T00:00:50;94405.38;;;16.87;100.00
38400;BME280;24180;42.676;23.320;2023-06-14T00:03:18;94357.31;;;16.60;100.00
38400;BME280;24180;42.676;23.320;2023-06-14T00:05:47;94404.03;;;16.97;100.00
38400;BME280;24180;42.676;23.320;2023-06-14T00:08:13;94382.53;;;16.74;100.00
38400;BME280;24180;42.676;23.320;2023-06-14T00:10:40;94394.06;;;16.79;100.00
38400;BME280;24180;42.676;23.320;2023-06-14T00:13:09;94388.81;;;16.79;100.00
38400;BME280;24180;42.676;23.320;2023-06-14T00:15:35;94393.91;;;16.88;100.00
38400;BME280;24180;42.676;23.320;2023-06-14T00:18:01;94389.72;;;16.93;100.00
38400;BME280;24180;42.676;23.320;2023-06-14T00:20:29;94389.56;;;17.01;100.00
38400;BME280;24180;42.676;23.320;2023-06-14T00:22:56;94394.19;;;16.99;100.00
38400;BME280;24180;42.676;23.320;2023-06-14T00:25:23;94379.69;;;16.97;100.00
38400;BME280;24180;42.676;23.320;2023-06-14T00:27:50;94370.63;;;16.93;100.00
38400;BME280;24180;42.676;23.320;2023-06-14T00:30:16;94380.47;;;16.97;100.00
38400;BME280;24180;42.676;23.320;2023-06-14T00:32:41;94388.38;;;17.04;100.00
38400;BME280;24180;42.676;23.320;2023-06-14T00:35:08;94365.31;;;16.86;100.00
38400;BME280;24180;42.676;23.320;2023-06-14T00:37:34;94357.06;;;16.82;100.00
38400;BME280;24180;42.676;23.320;2023-06-14T00:40:00;94387.41;;;17.05;100.00
38400;BME280;24180;42.676;23.320;2023-06-14T00:42:26;94375.31;;;17.04;100.00
38400;BME280;24180;42.676;23.320;2023-06-14T00:44:52;94380.78;;;17.09;100.00
38400;BME280;24180;42.676;23.320;2023-06-14T00:47:18;94373.94;;;17.08;100.00
38400;BME280;24180;42.676;23.320;2023-06-14T00:49:46;94367.69;;;17.09;100.00
38400;BME280;24180;42.676;23.320;2023-06-14T00:52:12;94347.66;;;16.88;100.00
38400;BME280;24180;42.676;23.320;2023-06-14T00:54:39;94366.00;;;16.95;100.00
38400;BME280;24180;42.676;23.320;2023-06-14T00:57:05;94370.16;;;16.89;100.00
38400;BME280;24180;42.676;23.320;2023-06-14T00:59:31;94353.84;;;16.80;100.00
38400;BME280;24180;42.676;23.320;2023-06-14T01:01:56;94370.00;;;16.97;100.00
38400;BME280;24180;42.676;23.320;2023-06-14T01:04:22;94379.31;;;17.00;100.00
38400;BME280;24180;42.676;23.320;2023-06-14T01:15:00;94374.91;;;17.07;100.00
38400;BME280;24180;42.676;23.320;2023-06-14T01:17:26;94353.31;;;16.92;100.00
38400;BME280;24180;42.676;23.320;2023-06-14T01:19:52;94357.44;;;16.79;100.00
38400;BME280;24180;42.676;23.320;2023-06-14T01:22:25;94352.75;;;16.68;100.00
38400;BME280;24180;42.676;23.320;2023-06-14T01:24:51;94372.34;;;16.85;100.00
38400;BME280;24180;42.676;23.320;2023-06-14T01:27:23;94375.75;;;16.79;100.00
38400;BME280;24180;42.676;23.320;2023-06-14T01:29:54;94369.00;;;16.92;100.00
38400;BME280;24180;42.676;23.320;2023-06-14T01:32:24;94375.59;;;16.88;100.00
38400;BME280;24180;42.676;23.320;2023-06-14T01:34:50;94364.72;;;16.84;100.00
38400;BME280;24180;42.676;23.320;2023-06-14T01:37:15;94365.16;;;16.88;100.00
38400;BME280;24180;42.676;23.320;2023-06-14T01:39:43;94368.34;;;16.90;100.00
38400;BME280;24180;42.676;23.320;2023-06-14T01:42:10;94374.22;;;16.92;100.00
38400;BME280;24180;42.676;23.320;2023-06-14T01:44:37;94336.53;;;16.79;100.00
38400;BME280;24180;42.676;23.320;2023-06-14T01:47:03;94353.84;;;16.80;100.00
38400;BME280;24180;42.676;23.320;2023-06-14T01:49:29;94322.41;;;16.74;100.00
38400;BME280;24180;42.676;23.320;2023-06-14T01:51:54;94372.47;;;17.05;100.00
38400;BME280;24180;42.676;23.320;2023-06-14T01:54:19;94339.38;;;16.84;100.00
38400;BME280;24180;42.676;23.320;2023-06-14T01:56:46;94362.78;;;16.93;100.00
38400;BME280;24180;42.676;23.320;2023-06-14T01:59:12;94348.00;;;16.85;100.00
38400;BME280;24180;42.676;23.320;2023-06-14T02:01:37;94356.78;;;16.71;100.00
38400;BME280;24180;42.676;23.320;2023-06-14T02:04:03;94360.63;;;16.75;100.00
38400;BME280;24180;42.676;23.320;2023-06-14T02:06:28;94369.09;;;16.77;100.00
38400;BME280;24180;42.676;23.320;2023-06-14T02:08:54;94360.38;;;16.70;100.00
38400;BME280;24180;42.676;23.320;2023-06-14T02:11:19;94401.91;;;16.79;100.00
38400;BME280;24180;42.676;23.320;2023-06-14T02:14:03;94405.25;;;16.73;100.00
38400;BME280;24180;42.676;23.320;2023-06-14T02:16:28;94398.50;;;16.58;100.00
38400;BME280;24180;42.676;23.320;2023-06-14T02:18:54;94398.50;;;16.58;100.00
38400;BME280;24180;42.676;23.320;2023-06-14T02:21:20;94377.81;;;16.42;100.00
38400;BME280;24180;42.676;23.320;2023-06-14T02:23:46;94404.03;;;16.48;100.00
38400;BME280;24180;42.676;23.320;2023-06-14T02:26:13;94394.88;;;16.37;100.00
38400;BME280;24180;42.676;23.320;2023-06-14T02:28:38;94412.84;;;16.47;100.00
38400;BME280;24180;42.676;23.320;2023-06-14T02:31:03;94399.28;;;16.37;100.00
38400;BME280;24180;42.676;23.320;2023-06-14T02:33:29;94402.97;;;16.43;100.00
38400;BME280;24180;42.676;23.320;2023-06-14T02:35:54;94367.75;;;16.17;100.00
38400;BME280;24180;42.676;23.320;2023-06-14T02:38:21;94404.03;;;16.27;100.00
38400;BME280;24180;42.676;23.320;2023-06-14T02:40:46;94376.78;;;16.15;100.00
38400;BME280;24180;42.676;23.320;2023-06-14T02:43:12;94403.16;;;16.20;100.00
38400;BME280;24180;42.676;23.320;2023-06-14T02:45:37;94370.56;;;16.16;100.00
38400;BME280;24180;42.676;23.320;2023-06-14T02:48:03;94376.78;;;16.15;100.00
38400;BME280;24180;42.676;23.320;2023-06-14T02:50:28;94388.41;;;16.12;100.00
38400;BME280;24180;42.676;23.320;2023-06-14T02:52:55;94401.66;;;16.11;100.00
38400;BME280;24180;42.676;23.320;2023-06-14T02:55:22;94371.19;;;15.97;100.00
38400;BME280;24180;42.676;23.320;2023-06-14T02:57:47;94404.75;;;16.21;100.00
38400;BME280;24180;42.676;23.320;2023-06-14T03:00:13;94398.38;;;16.23;100.00
38400;BME280;24180;42.676;23.320;2023-06-14T03:02:39;94393.88;;;16.17;100.00
38400;BME280;24180;42.676;23.320;2023-06-14T03:05:05;94405.63;;;16.07;100.00
38400;BME280;24180;42.676;23.320;2023-06-14T03:07:32;94407.03;;;16.09;100.00
38400;BME280;24180;42.676;23.320;2023-06-14T03:09:57;94380.00;;;15.96;100.00
38400;BME280;24180;42.676;23.320;2023-06-14T03:12:23;94401.53;;;16.19;100.00
38400;BME280;24180;42.676;23.320;2023-06-14T03:14:49;94376.50;;;16.10;100.00
38400;BME280;24180;42.676;23.320;2023-06-14T03:17:16;94411.09;;;16.33;100.00
38400;BME280;24180;42.676;23.320;2023-06-14T03:19:43;94409.81;;;16.44;100.00
38400;BME280;24180;42.676;23.320;2023-06-14T03:22:08;94385.19;;;16.31;100.00
38400;BME280;24180;42.676;23.320;2023-06-14T03:24:33;94418.34;;;16.52;100.00
38400;BME280;24180;42.676;23.320;2023-06-14T03:27:02;94388.34;;;16.48;100.00
38400;BME280;24180;42.676;23.320;2023-06-14T03:29:27;94417.44;;;16.60;100.00
38400;BME280;24180;42.676;23.320;2023-06-14T03:32:00;94395.50;;;16.39;100.00
38400;BME280;24180;42.676;23.320;2023-06-14T03:34:26;94423.69;;;16.65;100.00
38400;BME280;24180;42.676;23.320;2023-06-14T03:36:52;94389.50;;;16.46;100.00
38400;BME280;24180;42.676;23.320;2023-06-14T03:39:18;94425.06;;;16.61;100.00
38400;BME280;24180;42.676;23.320;2023-06-14T03:41:44;94441.00;;;16.66;100.00
38400;BME280;24180;42.676;23.320;2023-06-14T03:44:09;94433.28;;;16.58;100.00
38400;BME280;24180;42.676;23.320;2023-06-14T03:46:35;94428.97;;;16.51;100.00
38400;BME280;24180;42.676;23.320;2023-06-14T03:49:00;94425.06;;;16.40;100.00
38400;BME280;24180;42.676;23.320;2023-06-14T03:51:28;94404.41;;;16.24;100.00
38400;BME280;24180;42.676;23.320;2023-06-14T03:53:54;94428.53;;;16.26;100.00
38400;BME280;24180;42.676;23.320;2023-06-14T03:56:21;94405.94;;;16.18;100.00
38400;BME280;24180;42.676;23.320;2023-06-14T03:58:46;94403.88;;;16.14;100.00
38400;BME280;24180;42.676;23.320;2023-06-14T04:01:12;94426.16;;;16.31;100.00
38400;BME280;24180;42.676;23.320;2023-06-14T04:03:37;94399.91;;;16.18;100.00
38400;BME280;24180;42.676;23.320;2023-06-14T04:06:04;94410.22;;;16.26;100.00
38400;BME280;24180;42.676;23.320;2023-06-14T04:08:30;94386.66;;;16.19;100.00
38400;BME280;24180;42.676;23.320;2023-06-14T04:10:56;94418.09;;;16.47;100.00
38400;BME280;24180;42.676;23.320;2023-06-14T04:13:21;94424.06;;;16.62;100.00
38400;BME280;24180;42.676;23.320;2023-06-14T04:15:47;94440.47;;;16.77;100.00
38400;BME280;24180;42.676;23.320;2023-06-14T04:18:12;94432.97;;;16.68;100.00
38400;BME280;24180;42.676;23.320;2023-06-14T04:20:38;94435.78;;;16.66;100.00
38400;BME280;24180;42.676;23.320;2023-06-14T04:23:15;94437.13;;;16.62;100.00
38400;BME280;24180;42.676;23.320;2023-06-14T04:25:40;94407.81;;;16.46;100.00
38400;BME280;24180;42.676;23.320;2023-06-14T04:28:13;94440.56;;;16.63;100.00
38400;BME280;24180;42.676;23.320;2023-06-14T04:30:43;94413.59;;;16.41;100.00
38400;BME280;24180;42.676;23.320;2023-06-14T04:33:10;94418.66;;;16.64;100.00
38400;BME280;24180;42.676;23.320;2023-06-14T04:35:36;94422.94;;;16.50;100.00
38400;BME280;24180;42.676;23.320;2023-06-14T04:38:03;94388.66;;;16.38;100.00
38400;BME280;24180;42.676;23.320;2023-06-14T04:40:30;94414.09;;;16.51;100.00
38400;BME280;24180;42.676;23.320;2023-06-14T04:42:56;94438.63;;;16.71;100.00
38400;BME280;24180;42.676;23.320;2023-06-14T04:45:22;94431.66;;;16.57;100.00
38400;BME280;24180;42.676;23.320;2023-06-14T04:47:49;94406.09;;;16.53;100.00
38400;BME280;24180;42.676;23.320;2023-06-14T04:50:15;94443.72;;;16.79;100.00
38400;BME280;24180;42.676;23.320;2023-06-14T04:52:41;94416.34;;;16.75;100.00
38400;BME280;24180;42.676;23.320;2023-06-14T04:55:08;94448.69;;;16.96;100.00
38400;BME280;24180;42.676;23.320;2023-06-14T04:57:33;94440.59;;;16.91;100.00
38400;BME280;24180;42.676;23.320;2023-06-14T05:00:00;94446.19;;;17.09;100.00
38400;BME280;24180;42.676;23.320;2023-06-14T05:02:26;94461.59;;;17.25;100.00
38400;BME280;24180;42.676;23.320;2023-06-14T05:04:53;94424.88;;;17.12;100.00
38400;BME280;24180;42.676;23.320;2023-06-14T05:07:19;94417.72;;;17.27;100.00
38400;BME280;24180;42.676;23.320;2023-06-14T05:09:45;94437.28;;;17.65;100.00
38400;BME280;24180;42.676;23.320;2023-06-14T05:12:11;94446.00;;;17.79;100.00
38400;BME280;24180;42.676;23.320;2023-06-14T05:14:36;94452.31;;;17.98;100.00
38400;BME280;24180;42.676;23.320;2023-06-14T05:17:02;94488.31;;;18.23;100.00
38400;BME280;24180;42.676;23.320;2023-06-14T05:19:28;94463.31;;;18.28;100.00
38400;BME280;24180;42.676;23.320;2023-06-14T05:21:54;94479.56;;;18.64;100.00
38400;BME280;24180;42.676;23.320;2023-06-14T05:24:19;94476.34;;;18.68;100.00
38400;BME280;24180;42.676;23.320;2023-06-14T05:26:45;94508.66;;;19.02;100.00
38400;BME280;24180;42.676;23.320;2023-06-14T05:29:11;94460.63;;;18.95;100.00
38400;BME280;24180;42.676;23.320;2023-06-14T05:31:37;94468.09;;;19.04;100.00
38400;BME280;24180;42.676;23.320;2023-06-14T05:34:03;94514.75;;;19.35;100.00
38400;BME280;24180;42.676;23.320;2023-06-14T05:36:29;94514.53;;;19.30;100.00
38400;BME280;24180;42.676;23.320;2023-06-14T05:38:55;94513.94;;;19.22;100.00
38400;BME280;24180;42.676;23.320;2023-06-14T05:41:28;94517.34;;;19.22;100.00
38400;BME280;24180;42.676;23.320;2023-06-14T05:43:54;94494.16;;;19.26;100.00
38400;BME280;24180;42.676;23.320;2023-06-14T05:46:20;94516.19;;;19.44;100.00
38400;BME280;24180;42.676;23.320;2023-06-14T05:48:50;94521.59;;;19.62;100.00
38400;BME280;24180;42.676;23.320;2023-06-14T05:51:15;94528.84;;;19.87;100.00
38400;BME280;24180;42.676;23.320;2023-06-14T05:53:45;94511.63;;;20.04;100.00
38400;BME280;24180;42.676;23.320;2023-06-14T05:56:11;94532.22;;;20.07;100.00
38400;BME280;24180;42.676;23.320;2023-06-14T05:58:37;94520.66;;;20.21;100.00
38400;BME280;24180;42.676;23.320;2023-06-14T06:01:02;94509.28;;;20.40;100.00
38400;BME280;24180;42.676;23.320;2023-06-14T06:03:27;94517.69;;;20.62;100.00
38400;BME280;24180;42.676;23.320;2023-06-14T06:05:55;94539.72;;;20.99;100.00
38400;BME280;24180;42.676;23.320;2023-06-14T06:08:20;94535.44;;;20.73;100.00
38400;BME280;24180;42.676;23.320;2023-06-14T06:10:46;94519.50;;;20.62;100.00
38400;BME280;24180;42.676;23.320;2023-06-14T06:13:11;94545.22;;;20.91;100.00
38400;BME280;24180;42.676;23.320;2023-06-14T06:15:37;94547.28;;;20.89;100.00
38400;BME280;24180;42.676;23.320;2023-06-14T06:18:02;94532.22;;;20.65;100.00
38400;BME280;24180;42.676;23.320;2023-06-14T06:20:29;94539.75;;;20.54;100.00
38400;BME280;24180;42.676;23.320;2023-06-14T06:22:57;94551.59;;;20.26;100.00
38400;BME280;24180;42.676;23.320;2023-06-14T06:25:23;94556.31;;;19.91;100.00
38400;BME280;24180;42.676;23.320;2023-06-14T06:27:51;94552.31;;;19.69;100.00
38400;BME280;24180;42.676;23.320;2023-06-14T06:30:16;94523.22;;;19.50;100.00
38400;BME280;24180;42.676;23.320;2023-06-14T06:32:42;94530.28;;;19.30;100.00
38400;BME280;24180;42.676;23.320;2023-06-14T06:35:07;94555.16;;;19.41;100.00
38400;BME280;24180;42.676;23.320;2023-06-14T06:37:34;94547.88;;;19.36;100.00
38400;BME280;24180;42.676;23.320;2023-06-14T06:39:59;94552.53;;;19.60;100.00
38400;BME280;24180;42.676;23.320;2023-06-14T06:42:25;94551.50;;;19.81;100.00
38400;BME280;24180;42.676;23.320;2023-06-14T06:44:50;94526.03;;;19.75;100.00
38400;BME280;24180;42.676;23.320;2023-06-14T06:47:15;94550.03;;;20.05;100.00
38400;BME280;24180;42.676;23.320;2023-06-14T06:49:41;94545.94;;;20.16;100.00
38400;BME280;24180;42.676;23.320;2023-06-14T06:52:07;94525.34;;;20.06;100.00
38400;BME280;24180;42.676;23.320;2023-06-14T06:54:33;94558.69;;;20.32;100.00
38400;BME280;24180;42.676;23.320;2023-06-14T06:56:59;94544.06;;;20.42;100.00
38400;BME280;24180;42.676;23.320;2023-06-14T06:59:25;94527.94;;;20.26;100.00
38400;BME280;24180;42.676;23.320;2023-06-14T07:01:50;94521.47;;;20.15;100.00
38400;BME280;24180;42.676;23.320;2023-06-14T07:04:16;94557.25;;;20.23;100.00
38400;BME280;24180;42.676;23.320;2023-06-14T07:06:42;94532.81;;;20.16;100.00
38400;BME280;24180;42.676;23.320;2023-06-14T07:09:08;94506.00;;;19.94;100.00
38400;BME280;24180;42.676;23.320;2023-06-14T07:11:38;94549.88;;;20.58;100.00
38400;BME280;24180;42.676;23.320;2023-06-14T07:14:05;94558.00;;;20.94;100.00
38400;BME280;24180;42.676;23.320;2023-06-14T07:16:30;94535.69;;;20.96;100.00
38400;BME280;24180;42.676;23.320;2023-06-14T07:18:56;94545.88;;;21.24;100.00
38400;BME280;24180;42.676;23.320;2023-06-14T07:21:21;94524.84;;;21.42;100.00
38400;BME280;24180;42.676;23.320;2023-06-14T07:23:47;94554.81;;;21.98;100.00
38400;BME280;24180;42.676;23.320;2023-06-14T07:26:12;94540.50;;;22.23;100.00
38400;BME280;24180;42.676;23.320;2023-06-14T07:28:38;94533.53;;;22.47;100.00
38400;BME280;24180;42.676;23.320;2023-06-14T07:31:03;94552.75;;;22.54;100.00
38400;BME280;24180;42.676;23.320;2023-06-14T07:33:28;94558.22;;;22.71;100.00
38400;BME280;24180;42.676;23.320;2023-06-14T07:35:54;94555.34;;;22.43;100.00
38400;BME280;24180;42.676;23.320;2023-06-14T07:38:19;94563.66;;;22.58;100.00
38400;BME280;24180;42.676;23.320;2023-06-14T07:40:45;94534.53;;;22.64;100.00
38400;BME280;24180;42.676;23.320;2023-06-14T07:43:11;94539.88;;;22.94;100.00
38400;BME280;24180;42.676;23.320;2023-06-14T07:45:37;94572.88;;;23.45;100.00
38400;BME280;24180;42.676;23.320;2023-06-14T07:48:02;94531.88;;;23.12;100.00
38400;BME280;24180;42.676;23.320;2023-06-14T07:50:28;94572.22;;;23.61;100.00
38400;BME280;24180;42.676;23.320;2023-06-14T07:52:54;94562.59;;;23.90;100.00
38400;BME280;24180;42.676;23.320;2023-06-14T07:55:19;94544.66;;;24.27;100.00
38400;BME280;24180;42.676;23.320;2023-06-14T07:57:45;94554.78;;;24.18;100.00
38400;BME280;24180;42.676;23.320;2023-06-14T08:00:11;94553.28;;;24.34;100.00
38400;BME280;24180;42.676;23.320;2023-06-14T08:02:41;94562.63;;;25.04;100.00
38400;BME280;24180;42.676;23.320;2023-06-14T08:05:07;94580.53;;;25.26;100.00
38400;BME280;24180;42.676;23.320;2023-06-14T08:07:34;94556.50;;;24.87;100.00
38400;BME280;24180;42.676;23.320;2023-06-14T08:09:59;94583.66;;;24.94;100.00
38400;BME280;24180;42.676;23.320;2023-06-14T08:12:25;94571.91;;;24.90;100.00
38400;BME280;24180;42.676;23.320;2023-06-14T08:14:51;94565.38;;;25.09;100.00
38400;BME280;24180;42.676;23.320;2023-06-14T08:17:16;94578.19;;;25.01;100.00
38400;BME280;24180;42.676;23.320;2023-06-14T08:19:42;94575.44;;;24.56;100.00
38400;BME280;24180;42.676;23.320;2023-06-14T08:22:07;94599.22;;;24.79;100.00
38400;BME280;24180;42.676;23.320;2023-06-14T08:24:33;94598.56;;;24.49;100.00
38400;BME280;24180;42.676;23.320;2023-06-14T08:26:58;94605.72;;;24.37;100.00
38400;BME280;24180;42.676;23.320;2023-06-14T08:29:26;94600.41;;;24.48;100.00
38400;BME280;24180;42.676;23.320;2023-06-14T08:31:54;94585.59;;;24.12;100.00
38400;BME280;24180;42.676;23.320;2023-06-14T08:34:20;94601.66;;;23.88;100.00
38400;BME280;24180;42.676;23.320;2023-06-14T08:36:45;94581.44;;;23.58;100.00
38400;BME280;24180;42.676;23.320;2023-06-14T08:39:11;94603.81;;;23.56;100.00
38400;BME280;24180;42.676;23.320;2023-06-14T08:41:37;94574.31;;;23.59;100.00
38400;BME280;24180;42.676;23.320;2023-06-14T08:44:03;94575.69;;;23.73;100.00
38400;BME280;24180;42.676;23.320;2023-06-14T08:46:32;94590.75;;;24.07;100.00
38400;BME280;24180;42.676;23.320;2023-06-14T08:48:59;94587.91;;;24.20;100.00
38400;BME280;24180;42.676;23.320;2023-06-14T08:51:25;94583.03;;;24.52;100.00
38400;BME280;24180;42.676;23.320;2023-06-14T08:53:55;94567.41;;;24.28;100.00
38400;BME280;24180;42.676;23.320;2023-06-14T08:56:27;94583.38;;;24.44;100.00
38400;BME280;24180;42.676;23.320;2023-06-14T08:58:53;94578.44;;;24.48;100.00
38400;BME280;24180;42.676;23.320;2023-06-14T09:01:20;94581.81;;;24.83;100.00
38400;BME280;24180;42.676;23.320;2023-06-14T09:03:47;94557.50;;;24.98;100.00
38400;BME280;24180;42.676;23.320;2023-06-14T09:06:13;94581.88;;;25.00;100.00
38400;BME280;24180;42.676;23.320;2023-06-14T09:08:42;94566.94;;;24.94;100.00
38400;BME280;24180;42.676;23.320;2023-06-14T09:11:11;94582.41;;;25.13;100.00
38400;BME280;24180;42.676;23.320;2023-06-14T09:13:38;94579.94;;;24.84;100.00
38400;BME280;24180;42.676;23.320;2023-06-14T09:16:04;94563.13;;;24.50;100.00
38400;BME280;24180;42.676;23.320;2023-06-14T09:18:37;94564.75;;;24.51;100.00
38400;BME280;24180;42.676;23.320;2023-06-14T09:21:05;94542.25;;;24.25;100.00
38400;BME280;24180;42.676;23.320;2023-06-14T09:23:33;94578.66;;;24.58;100.00
38400;BME280;24180;42.676;23.320;2023-06-14T09:26:01;94575.06;;;24.64;100.00
38400;BME280;24180;42.676;23.320;2023-06-14T09:28:27;94552.91;;;24.82;100.00
38400;BME280;24180;42.676;23.320;2023-06-14T09:30:53;94573.44;;;25.14;100.00
38400;BME280;24180;42.676;23.320;2023-06-14T09:33:18;94576.19;;;25.36;100.00
38400;BME280;24180;42.676;23.320;2023-06-14T09:35:51;94573.09;;;25.56;100.00
38400;BME280;24180;42.676;23.320;2023-06-14T09:38:16;94563.84;;;25.42;100.00
38400;BME280;24180;42.676;23.320;2023-06-14T09:40:41;94573.19;;;25.94;100.00
38400;BME280;24180;42.676;23.320;2023-06-14T09:43:07;94568.50;;;26.18;100.00
38400;BME280;24180;42.676;23.320;2023-06-14T09:45:36;94536.88;;;25.95;100.00
38400;BME280;24180;42.676;23.320;2023-06-14T09:48:04;94550.03;;;26.06;100.00
38400;BME280;24180;42.676;23.320;2023-06-14T09:50:31;94527.22;;;25.72;100.00
38400;BME280;24180;42.676;23.320;2023-06-14T09:53:03;94527.91;;;25.17;100.00
38400;BME280;24180;42.676;23.320;2023-06-14T09:55:30;94533.09;;;25.12;100.00
38400;BME280;24180;42.676;23.320;2023-06-14T09:57:57;94562.78;;;24.98;100.00
38400;BME280;24180;42.676;23.320;2023-06-14T10:00:25;94558.59;;;24.74;100.00
38400;BME280;24180;42.676;23.320;2023-06-14T10:02:54;94542.81;;;25.07;100.00
38400;BME280;24180;42.676;23.320;2023-06-14T10:05:24;94519.16;;;25.34;100.00
38400;BME280;24180;42.676;23.320;2023-06-14T10:08:07;94527.41;;;25.66;100.00
38400;BME280;24180;42.676;23.320;2023-06-14T10:10:33;94541.06;;;25.74;100.00
38400;BME280;24180;42.676;23.320;2023-06-14T10:12:59;94535.13;;;25.84;100.00
38400;BME280;24180;42.676;23.320;2023-06-14T10:15:52;94540.84;;;26.31;100.00
38400;BME280;24180;42.676;23.320;2023-06-14T10:18:48;94528.19;;;27.03;100.00
38400;BME280;24180;42.676;23.320;2023-06-14T10:21:31;94508.19;;;28.33;100.00
38400;BME280;24180;42.676;23.320;2023-06-14T10:24:01;94486.13;;;29.45;93.16
38400;BME280;24180;42.676;23.320;2023-06-14T10:26:28;94522.72;;;31.34;80.88
38400;BME280;24180;42.676;23.320;2023-06-14T10:31:23;94524.75;;;35.98;55.21
38400;BME280;24180;42.676;23.320;2023-06-14T10:34:04;94528.19;;;36.51;48.24
38400;BME280;24180;42.676;23.320;2023-06-14T10:36:30;94520.16;;;36.60;45.01
38400;BME280;24180;42.676;23.320;2023-06-14T10:39:07;94527.09;;;35.99;46.49
38400;BME280;24180;42.676;23.320;2023-06-14T10:41:39;94490.03;;;33.56;56.59
38400;BME280;24180;42.676;23.320;2023-06-14T10:46:40;94512.72;;;31.10;78.89
38400;BME280;24180;42.676;23.320;2023-06-14T10:49:06;94488.25;;;29.84;80.12
38400;BME280;24180;42.676;23.320;2023-06-14T10:51:42;94485.56;;;29.73;85.38
38400;BME280;24180;42.676;23.320;2023-06-14T10:54:15;94507.44;;;30.16;82.75
38400;BME280;24180;42.676;23.320;2023-06-14T10:56:51;94483.72;;;29.74;81.67
38400;BME280;24180;42.676;23.320;2023-06-14T10:59:18;94486.22;;;33.06;66.94
38400;BME280;24180;42.676;23.320;2023-06-14T11:04:49;94488.28;;;39.39;41.40
38400;BME280;24180;42.676;23.320;2023-06-14T11:12:47;94489.28;;;38.29;37.91
38400;BME280;24180;42.676;23.320;2023-06-14T11:15:13;94482.97;;;38.63;38.69
38400;BME280;24180;42.676;23.320;2023-06-14T11:17:39;94456.13;;;37.94;40.63
38400;BME280;24180;42.676;23.320;2023-06-14T11:20:11;94462.22;;;35.43;47.26
38400;BME280;24180;42.676;23.320;2023-06-14T11:22:44;94455.13;;;33.56;58.39
38400;BME280;24180;42.676;23.320;2023-06-14T11:25:13;94441.72;;;32.38;68.43
38400;BME280;24180;42.676;23.320;2023-06-14T11:27:38;94441.81;;;31.47;70.45
38400;BME280;24180;42.676;23.320;2023-06-14T11:30:07;94476.97;;;31.35;69.52
38400;BME280;24180;42.676;23.320;2023-06-14T11:32:32;94474.53;;;30.95;72.89
38400;BME280;24180;42.676;23.320;2023-06-14T11:34:58;94472.53;;;30.72;75.88
38400;BME280;24180;42.676;23.320;2023-06-14T11:37:25;94422.06;;;30.60;77.22
38400;BME280;24180;42.676;23.320;2023-06-14T11:39:59;94457.38;;;32.02;68.60
38400;BME280;24180;42.676;23.320;2023-06-14T11:42:27;94474.00;;;34.84;56.96
38400;BME280;24180;42.676;23.320;2023-06-14T11:44:54;94475.47;;;35.39;48.24
38400;BME280;24180;42.676;23.320;2023-06-14T11:47:19;94453.31;;;37.14;45.79
38400;BME280;24180;42.676;23.320;2023-06-14T11:49:46;94461.75;;;36.16;45.81
38400;BME280;24180;42.676;23.320;2023-06-14T11:52:11;94436.09;;;33.71;56.91
38400;BME280;24180;42.676;23.320;2023-06-14T11:54:37;94450.75;;;33.09;59.12
38400;BME280;24180;42.676;23.320;2023-06-14T11:57:03;94459.50;;;32.06;65.77
38400;BME280;24180;42.676;23.320;2023-06-14T11:59:30;94443.47;;;31.38;69.27
38400;BME280;24180;42.676;23.320;2023-06-14T12:01:56;94419.94;;;31.06;66.75
38400;BME280;24180;42.676;23.320;2023-06-14T12:04:26;94433.34;;;34.03;55.75
38400;BME280;24180;42.676;23.320;2023-06-14T12:06:52;94396.69;;;34.89;49.79
38400;BME280;24180;42.676;23.320;2023-06-14T12:09:19;94411.59;;;36.06;45.73
38400;BME280;24180;42.676;23.320;2023-06-14T12:11:45;94412.28;;;35.37;45.76
38400;BME280;24180;42.676;23.320;2023-06-14T12:14:10;94405.88;;;32.77;55.71
38400;BME280;24180;42.676;23.320;2023-06-14T12:16:38;94420.06;;;32.11;67.06
38400;BME280;24180;42.676;23.320;2023-06-14T12:19:15;94420.22;;;35.86;49.91
38400;BME280;24180;42.676;23.320;2023-06-14T12:21:42;94418.25;;;38.79;37.52
38400;BME280;24180;42.676;23.320;2023-06-14T12:24:08;94394.00;;;40.83;32.80
38400;BME280;24180;42.676;23.320;2023-06-14T12:26:37;94414.25;;;41.81;31.21
38400;BME280;24180;42.676;23.320;2023-06-14T12:29:05;94402.47;;;41.62;31.04
38400;BME280;24180;42.676;23.320;2023-06-14T12:31:30;94389.66;;;37.93;36.48
38400;BME280;24180;42.676;23.320;2023-06-14T12:33:56;94389.78;;;37.08;39.84
38400;BME280;24180;42.676;23.320;2023-06-14T12:36:21;94386.19;;;35.68;43.28
38400;BME280;24180;42.676;23.320;2023-06-14T12:38:47;94407.19;;;34.77;46.03
38400;BME280;24180;42.676;23.320;2023-06-14T12:41:13;94380.34;;;33.63;53.97
38400;BME280;24180;42.676;23.320;2023-06-14T12:43:39;94401.81;;;32.61;57.11
38400;BME280;24180;42.676;23.320;2023-06-14T12:46:05;94379.66;;;32.31;62.54
38400;BME280;24180;42.676;23.320;2023-06-14T12:48:31;94382.81;;;32.76;62.45
38400;BME280;24180;42.676;23.320;2023-06-14T12:50:57;94393.63;;;31.81;66.50
38400;BME280;24180;42.676;23.320;2023-06-14T12:53:23;94391.25;;;31.17;70.64
38400;BME280;24180;42.676;23.320;2023-06-14T12:55:49;94385.47;;;30.55;75.92
38400;BME280;24180;42.676;23.320;2023-06-14T12:58:14;94375.13;;;29.64;81.66
38400;BME280;24180;42.676;23.320;2023-06-14T13:00:42;94391.16;;;29.09;87.38
38400;BME280;24180;42.676;23.320;2023-06-14T13:03:07;94381.56;;;29.03;89.58